Capitol Logistics 402


KLAX
Los Angeles International Airport
Los Angeles, California, US
KSEA
Seattle-Tacoma International Airport
Seattle, Washington, US

Activity Log

Date Flight Route Aircraft Duration
04/27/2020 CPX402 SCTRR SNS RBL LMT B77L 2h 49m
01/14/2020 CPX402 TRTON2 SCTRR SNS RBL BTG HAWKZ7 B744 2h 58m
10/27/2019 CPX402 TRTON2 SCTRR SNS RBL BTG HAWKZ7 B744 2h 14m
05/17/2019 CPX402 TRTON2 SCTRR SNS RBL BTG HAWKZ7 B744 2h 20m
04/15/2019 CPX402 TRTON2 SCTRR SNS RBL BTG HAWKZ7 B744 2h 18m
01/22/2019 CPX402 SUMMR1 SCTRR SNS RBL LMT HAWKZ7 B752 2h 33m

Route Details

Aircraft Information
Primary: Boeing 747-400BCF
Backup: Boeing 777-200LRF
Route Data
Distance: 831nm
Sched. Duration: 2h 08m
Avg. Duration: 2h 32m (+25m)
Times Flown: 6
Recm'd Route: TRTON2 SCTRR SNS RBL BTG HAWKZ7
Planned Altitude: 36,000ft
Origin Wx: KLAX 060753Z 28011KT 10SM OVC055 18/14 A2986 RMK AO2 SLP110 T01780139 402110172
Dest. Wx: KSEA 060805Z 19006KT 10SM BKN022 OVC038 12/08 A2977 RMK AO2 T01220083
Notes:

Financial History
Total Freight: 812,292lbs
Average Load: 135,382lbs/flt
Fuel Used: 257,032lbs
Avg. Fuel Used: 42,839lbs/flt
Fuel Expense: $303,287
Avg. Fuel Expense: $50,548
Avg. Fuel Cost: $1.18/lbs
Total Gross Income: $1,077,247
Pilot Pay: $684
Total Expenses: $116,655
Total Revenue: $654,817
Average Revenue: $179,541.18